Tiempo atmosférico en la estación meteorológica de Sevilla, Tablada, Sevilla (9 m.)



Fecha
DESCASC
Temp. máxima en grados centígrados (hora)
DESCASC
Temp. mínima en grados centígrados (hora)
DESCASC
Temp. media en grados centígrados
DESCASC
Racha de viento máxima en m/sg (hora)
DESCASC
Velocidad máxima media en intervalos de 10 minutos(hora)
DESCASC
Precipitaciones diarias en mm
DESCASC
Precipitaciones de 00:00 a 06:00 en mm
DESCASC
Precipitaciones de 06:00 a 12:00 en mm
DESCASC
Precipitaciones de 12:00 a 18:00 en mm
DESCASC
Precipitaciones de 18:00 a 24:00 en mm
DESCASC
22-01-2020 11.6 (16:20) 8.6 (07:30) 10.1 4.44 (06:20) 2.5 (08:20) 3.2 0.4 0.2 1.6 1
21-01-2020 14.6 (12:20) 5.2 (08:40) 9.9 7.5 (12:10) 3.61 (00:40) 0 0 0 0 0
20-01-2020 13.6 (17:10) 6.6 (07:30) 10.1 13.61 (14:00) 6.67 (14:20) 0 0 0 0 0
19-01-2020 17.8 (14:30) 6.4 (00:00) 12.1 13.06 (20:50) 6.11 (20:50) 0 0 0 0 0
18-01-2020 16 (17:50) 8.9 (00:00) 12.4 9.72 (23:00) 3.89 (16:40) 4 0 0.6 2.2 1.2
17-01-2020 18.5 (16:20) 9.3 (00:00) 13.9 3.89 (14:40) 1.67 (07:30) 0 0 0 0 0
16-01-2020 18.9 (15:00) 6.5 (00:00) 12.7 5 (16:10) 2.78 (16:10) 0 0 0 0 0
15-01-2020 18.2 (16:00) 5.2 (00:00) 11.7 7.78 (16:10) 4.44 (16:30) 0 0 0 0 0
14-01-2020 15.9 (15:10) 4.6 (00:00) 10.2 3.89 (10:20) 1.94 (10:20) 0 0 0 0 0
13-01-2020 16.6 (16:20) 3.5 (00:00) 10.1 3.89 (12:10) 2.22 (11:00) 0 0 0 0 0
12-01-2020 18.1 (16:20) 3.6 (08:50) 10.9 4.72 (12:00) 2.5 (12:00) 0 0 0 0 0
11-01-2020 17.6 (16:30) 4.6 (00:00) 11.1 5 (11:50) 2.78 (13:00) 0 0 0 0 0
10-01-2020 17.1 (15:40) 4.1 (00:00) 10.6 5 (13:30) 2.78 (13:20) 0 0 0 0 0
09-01-2020 17 (14:40) 3.4 (00:00) 10.2 3.61 (11:50) 1.67 (11:40) 0 0 0 0 0
08-01-2020 20.4 (16:20) 4.7 (00:00) 12.5 5 (12:10) 2.5 (12:10) 0 0 0 0 0
07-01-2020 19 (16:20) 5.2 (00:00) 12.1 5 (11:50) 2.5 (11:50) 0 0 0 0 0
06-01-2020 17.8 (16:20) 5.1 (00:00) 11.4 3.89 (11:30) 1.94 (11:10) 0 0 0 0 0
05-01-2020 17.4 (15:30) 6.9 (00:00) 12.1 5.83 (13:50) 3.33 (15:50) 0 0 0 0 0
04-01-2020 15.2 (15:30) 4.3 (00:00) 9.8 6.67 (12:30) 3.61 (12:40) 0 0 0 0 0
03-01-2020 14.8 (16:40) 6.9 (00:00) 10.9 3.06 (12:00) 1.94 (12:00) 0 0 0 0 0
02-01-2020 17.8 (15:20) 5.5 (00:00) 11.6 3.61 (12:50) 1.94 (11:00) 0 0 0 0 0
01-01-2020 18.3 (15:50) 5.7 (00:00) 12 3.89 (07:40) 1.67 (12:10) 0 0 0 0 0
31-12-2019 18.2 (16:20) 7.4 (00:00) 12.8 5.83 (06:00) 2.78 (06:00) 0 0 0 0 0
30-12-2019 -- (--) -- (--) -- -- (--) -- (--) -- 0 0 0 --
29-12-2019 20.1 (15:20) 8.8 (00:00) 14.5 6.11 (17:40) 2.5 (16:50) 0 0 0 0 0
28-12-2019 21.4 (16:10) 9.6 (00:00) 15.5 6.39 (11:10) 2.78 (11:00) 0 0 0 0 0
27-12-2019 22.8 (15:50) 10.9 (00:00) 16.8 5.56 (08:50) 2.78 (17:00) 0 0 0 0 0

Gráficas

Temp. máximas Temp. mínimas Temp. medias Precipitaciones Rachas de viento máximas Velocidades máximas media en intervalos de 10 minutos

Datos horarios

Fecha y hora oficial Temperatura (ºC) Velocidad del viento (km/h) Dirección del viento Racha (km/h) Dirección de racha Precipitación (mm) Presión (hPa) Tendencia (hPa) Humedad (%)
2020-01-25 23:00:00 9.1 0 Calma 4 Sudoeste 0 -- -- 96
2020-01-25 22:00:00 10 0 Calma 3 Sudoeste 0 -- -- 95
2020-01-25 21:00:00 11.1 0 Calma 3 Oeste 0 -- -- 94
2020-01-25 20:00:00 11.9 0 Calma 3 Noroeste 0 -- -- 93
2020-01-25 19:00:00 12.8 2 Norte 9 Norte 0 -- -- 90
2020-01-25 18:00:00 14.3 6 Norte 14 Norte 0 -- -- 85
2020-01-25 17:00:00 15.1 2 Oeste 9 Oeste 0 -- -- 81
2020-01-25 16:00:00 13.7 3 Oeste 7 Noroeste 0.2 -- -- 90
2020-01-25 15:00:00 13.1 0 Calma 13 Sur 0.8 -- -- 90
2020-01-25 14:00:00 13.2 5 Sur 12 Sur 0.2 -- -- 92
2020-01-25 13:00:00 12.6 7 Sur 13 Sudeste 0 -- -- 92
2020-01-25 12:00:00 12.2 6 Sudeste 12 Sudeste 0 -- -- 98
2020-01-25 11:00:00 11.1 4 Sudeste 8 Sudeste 0.2 -- -- 99
2020-01-25 10:00:00 10.3 2 Sudeste 14 Sudeste 1.4 -- -- 99
2020-01-25 09:00:00 10.4 4 Sudeste 11 Sudeste 0.2 -- -- 99
2020-01-25 08:00:00 10.4 3 Sudeste 6 Sudeste 0.2 -- -- 99
2020-01-25 07:00:00 10.4 2 Este 9 Este 0.2 -- -- 99
2020-01-25 06:00:00 10.2 4 Sudeste 8 Este 3.4 -- -- 100
2020-01-25 05:00:00 10.4 4 Este 10 Sudeste 4.4 -- -- 99
2020-01-25 04:00:00 10 6 Noroeste 13 Oeste 0.8 -- -- 99
2020-01-25 03:00:00 9.8 2 Noroeste 9 Noroeste 0 -- -- 99
2020-01-25 02:00:00 9.2 0 Calma 3 Sur 0 -- -- 99
2020-01-25 01:00:00 9.1 0 Calma 4 Sur 0 -- -- 98
2020-01-25 00:00:00 9.4 3 Sudoeste 5 Sudoeste 0.2 -- -- 97
2020-01-24 23:00:00 10 0 Calma 10 Sudeste 0 -- -- 96
2020-01-24 22:00:00 11.2 4 Sur 12 Sur 0 -- -- 96
2020-01-24 21:00:00 11.3 8 Sudeste 25 Sudeste 1 -- -- 96
2020-01-24 20:00:00 11.3 16 Sudeste 26 Sudeste 2.2 -- -- 96
2020-01-24 19:00:00 11.5 12 Sudeste 24 Sudeste 5.4 -- -- 95
2020-01-24 18:00:00 11.9 5 Este 13 Sudeste 3 -- -- 95
2020-01-24 17:00:00 12.4 4 Sudeste 12 Sudeste 2.4 -- -- 93
2020-01-24 16:00:00 13.1 7 Sudeste 15 Sudeste 2 -- -- 90
2020-01-24 15:00:00 13.9 6 Este 14 Este 0.2 -- -- 85
2020-01-24 14:00:00 14.1 6 Sudeste 13 Sudeste 0 -- -- 80
2020-01-24 13:00:00 14 2 Norte 11 Nordeste 0 -- -- 85
2020-01-24 12:00:00 12 3 Norte 9 Norte 0 -- -- 97
2020-01-24 11:00:00 10.8 2 Norte 6 Norte 0 -- -- 99
2020-01-24 10:00:00 10.4 4 Nordeste 8 Nordeste 0 -- -- 99
2020-01-24 09:00:00 10.2 0 Calma 6 Nordeste 0 -- -- 99
2020-01-24 08:00:00 10.1 0 Calma 3 Nordeste 0 -- -- 99
2020-01-24 07:00:00 10 0 Calma 5 Nordeste 0 -- -- 99
2020-01-24 06:00:00 9.8 2 Norte 5 Noroeste 0 -- -- 99
2020-01-24 05:00:00 9.8 2 Noroeste 4 Noroeste 0 -- -- 99
2020-01-24 04:00:00 9.6 0 Calma 4 Norte 0 -- -- 99
2020-01-24 03:00:00 9.4 0 Calma 4 Noroeste 0 -- -- 99
2020-01-24 02:00:00 9.3 2 Norte 3 Norte 0 -- -- 98
2020-01-24 01:00:00 9 0 Calma 3 Este 0 -- -- 97
2020-01-24 00:00:00 9.9 0 Calma 3 Este 0 -- -- 96
2020-01-23 23:00:00 10.7 0 Calma 10 Sudeste 0 -- -- 96
2020-01-23 22:00:00 10.9 6 Sudeste 15 Sudeste 0.8 -- -- 97
2020-01-23 21:00:00 11 3 Sudeste 14 Sudeste 0.2 -- -- 97
2020-01-23 20:00:00 11.2 6 Sudeste 14 Sudeste 0.4 -- -- 98
2020-01-23 19:00:00 10.6 2 Sur 5 Sudeste 0.2 -- -- 98
2020-01-23 18:00:00 10.6 2 Norte 12 Este 2.6 -- -- 98
2020-01-23 17:00:00 10.4 7 Norte 14 Noroeste 7.2 -- -- 98
2020-01-23 16:00:00 10.5 3 Nordeste 9 Nordeste 0 -- -- 98
2020-01-23 15:00:00 10 4 Nordeste 8 Norte 2.2 -- -- 98
2020-01-23 14:00:00 10 3 Noroeste 21 Oeste 2.4 -- -- 98
2020-01-23 13:00:00 10.2 3 Norte 9 Norte 0.6 -- -- 98
2020-01-23 12:00:00 10.2 3 Nordeste 12 Nordeste 2 -- -- 99
2020-01-23 11:00:00 9.8 2 Norte 10 Nordeste 3.6 -- -- 98
2020-01-23 10:00:00 9.8 3 Este 8 Este 6.6 -- -- 98
2020-01-23 09:00:00 9.9 3 Nordeste 8 Sudeste 2.6 -- -- 98
2020-01-23 08:00:00 9.8 3 Sudeste 9 Sudeste 2.8 -- -- 98
2020-01-23 07:00:00 9.5 3 Este 9 Este 0.6 -- -- 98
2020-01-23 06:00:00 9.4 2 Noroeste 6 Norte 1.2 -- -- 98
2020-01-23 05:00:00 9.4 2 Noroeste 6 Sudoeste 0 -- -- 98
2020-01-23 04:00:00 9.6 4 Norte 9 Noroeste 0 -- -- 98
2020-01-23 03:00:00 9.7 0 Calma 5 Norte 0.8 -- -- 97
2020-01-23 02:00:00 9.8 3 Nordeste 9 Norte 0.8 -- -- 97
2020-01-23 01:00:00 9.8 4 Norte 7 Norte 1.2 -- -- 96
2020-01-23 00:00:00 9.9 2 Norte 6 Norte 0.2 -- -- 95
2020-01-22 23:00:00 9.9 0 Calma 5 Sudeste 0 -- -- 94
2020-01-22 22:00:00 9.9 0 Calma 9 Este 0 -- -- 94
2020-01-22 21:00:00 10 4 Este 12 Sudeste 0 -- -- 93
2020-01-22 20:00:00 10.2 6 Sudeste 14 Sudeste 0 -- -- 91
2020-01-22 19:00:00 10.1 4 Sudeste 16 Sur 0.8 -- -- 94
2020-01-22 18:00:00 10.9 7 Sur 15 Sudoeste 1.2 -- -- 91
2020-01-22 17:00:00 11.4 4 Este 9 Nordeste 0 -- -- 91
2020-01-22 16:00:00 11.5 5 Nordeste 12 Norte 0 -- -- 92
2020-01-22 15:00:00 10.9 4 Nordeste 12 Norte 0.2 -- -- 95
2020-01-22 14:00:00 10.3 4 Nordeste 12 Norte 0.2 -- -- 94
2020-01-22 13:00:00 10 5 Nordeste 13 Este 0 -- -- 95
2020-01-22 12:00:00 9.7 5 Este 15 Nordeste 0 -- -- 95
2020-01-22 11:00:00 9.3 6 Este 13 Este 0.2 -- -- 95
2020-01-22 10:00:00 8.8 6 Este 16 Este 0 -- -- 96
2020-01-22 09:00:00 8.6 6 Sudeste 14 Sudeste 0 -- -- 95
2020-01-22 08:00:00 8.6 8 Sudeste 12 Sudeste 0 -- -- 95
2020-01-22 07:00:00 8.7 7 Sudeste 16 Sudeste 0 -- -- 94
2020-01-22 06:00:00 8.9 6 Este 12 Sudeste 0.2 -- -- 94
2020-01-22 05:00:00 9.1 6 Este 15 Este 0.2 -- -- 93
2020-01-22 04:00:00 9.2 2 Norte 5 Norte 0 -- -- 88
2020-01-22 03:00:00 9.3 3 Nordeste 8 Nordeste 0 -- -- 83
2020-01-22 02:00:00 9.6 4 Nordeste 13 Este 0 -- -- 78
2020-01-22 01:00:00 9.8 7 Nordeste 15 Este 0 -- -- 74
2020-01-22 00:00:00 9.6 3 Norte 10 Norte 0 -- -- 75
2020-01-21 23:00:00 9.7 3 Norte 11 Norte 0 -- -- 73
2020-01-21 22:00:00 9.7 5 Norte 10 Norte 0 -- -- 73
2020-01-21 21:00:00 10.8 3 Nordeste 17 Nordeste 0 -- -- 67
2020-01-21 20:00:00 11.2 8 Nordeste 17 Nordeste 0 -- -- 64
2020-01-21 19:00:00 11.2 5 Nordeste 13 Norte 0 -- -- 63
2020-01-21 18:00:00 11.8 7 Nordeste 22 Nordeste 0 -- -- 60
2020-01-21 17:00:00 12.4 11 Nordeste 21 Nordeste 0 -- -- 58
2020-01-21 16:00:00 13.2 12 Nordeste 24 Nordeste 0 -- -- 56
2020-01-21 15:00:00 12.4 9 Nordeste 24 Este 0 -- -- 57
2020-01-21 14:00:00 12.7 9 Nordeste 21 Este 0 -- -- 55
2020-01-21 13:00:00 13.3 8 Nordeste 27 Norte 0 -- -- 52
2020-01-21 12:00:00 14 8 Nordeste 21 Norte 0 -- -- 53
2020-01-21 11:00:00 11.1 5 Norte 12 Norte 0 -- -- 61
2020-01-21 10:00:00 9.7 2 Norte 8 Noroeste 0 -- -- 72
2020-01-21 09:00:00 5.5 3 Noroeste 5 Nordeste 0 -- -- 87
2020-01-21 08:00:00 5.5 0 Calma 5 Nordeste 0 -- -- 83
2020-01-21 07:00:00 6.6 2 Nordeste 4 Nordeste 0 -- -- 79
2020-01-21 06:00:00 8.1 3 Nordeste 14 Norte 0 -- -- 73
2020-01-21 05:00:00 9 6 Nordeste 15 Nordeste 0 -- -- 68
2020-01-21 04:00:00 9.1 6 Nordeste 15 Nordeste 0 -- -- 67
2020-01-21 03:00:00 9.4 5 Nordeste 17 Nordeste 0 -- -- 66
2020-01-21 02:00:00 10.1 9 Nordeste 17 Nordeste 0 -- -- 64
2020-01-21 01:00:00 10.5 9 Nordeste 24 Nordeste 0 -- -- 62
2020-01-21 00:00:00 10.3 11 Nordeste 28 Nordeste 0 -- -- 63
2020-01-20 23:00:00 10.1 7 Nordeste 16 Nordeste 0 -- -- 65
2020-01-20 22:00:00 10.4 8 Nordeste 21 Norte 0 -- -- 61
2020-01-20 21:00:00 10.3 9 Nordeste 26 Norte 0 -- -- 59
2020-01-20 20:00:00 10.9 10 Nordeste 25 Nordeste 0 -- -- 55
2020-01-20 19:00:00 11.9 14 Nordeste 28 Este 0 -- -- 52
2020-01-20 18:00:00 12.7 18 Este 42 Este 0 -- -- 49
2020-01-20 17:00:00 13.5 20 Este 44 Este 0 -- -- 47
2020-01-20 16:00:00 12.3 14 Nordeste 43 Nordeste 0 -- -- 49
2020-01-20 15:00:00 12.6 19 Nordeste 48 Nordeste 0 -- -- 46
2020-01-20 14:00:00 12.1 23 Nordeste 49 Nordeste 0 -- -- 46
2020-01-20 13:00:00 10.9 17 Nordeste 43 Este 0 -- -- 49
2020-01-20 12:00:00 9.7 19 Nordeste 44 Nordeste 0 -- -- 50
2020-01-20 11:00:00 8.7 13 Nordeste 29 Norte 0 -- -- 57
2020-01-20 10:00:00 8.2 12 Nordeste 26 Nordeste 0 -- -- 56
2020-01-20 09:00:00 7 9 Nordeste 21 Nordeste 0 -- -- 57
2020-01-20 08:00:00 6.8 7 Nordeste 18 Nordeste 0 -- -- 58
2020-01-20 07:00:00 6.8 11 Nordeste 21 Este 0 -- -- 59
2020-01-20 06:00:00 7.2 6 Nordeste 19 Nordeste 0 -- -- 59
2020-01-20 05:00:00 7.7 9 Nordeste 19 Nordeste 0 -- -- 59
2020-01-20 04:00:00 8.4 9 Nordeste 28 Este 0 -- -- 57
2020-01-20 03:00:00 8.8 10 Nordeste 27 Nordeste 0 -- -- 56
2020-01-20 02:00:00 9.2 9 Nordeste 28 Nordeste 0 -- -- 59
2020-01-20 01:00:00 9.7 12 Nordeste 28 Este 0 -- -- 57
2020-01-20 00:00:00 10.5 14 Nordeste 35 Nordeste 0 -- -- 54
2020-01-19 23:00:00 10.8 15 Nordeste 37 Nordeste 0 -- -- 56
2020-01-19 22:00:00 11.2 11 Nordeste 38 Nordeste 0 -- -- 60
2020-01-19 21:00:00 12.7 20 Nordeste 47 Nordeste 0 -- -- 49
2020-01-19 20:00:00 13.1 11 Norte 24 Norte 0 -- -- 51
2020-01-19 19:00:00 13.9 12 Nordeste 32 Este 0 -- -- 49
2020-01-19 18:00:00 14.8 11 Nordeste 31 Nordeste 0 -- -- 51
2020-01-19 17:00:00 16 11 Nordeste 34 Norte 0 -- -- 51
2020-01-19 16:00:00 17.1 14 Norte 34 Norte 0 -- -- 46
2020-01-19 15:00:00 17.2 18 Nordeste 33 Norte 0 -- -- 46
2020-01-19 14:00:00 17.2 11 Norte 23 Norte 0 -- -- 57
2020-01-19 13:00:00 16.2 11 Norte 22 Norte 0 -- -- 59
2020-01-19 12:00:00 15.4 9 Norte 20 Noroeste 0 -- -- 70
2020-01-19 11:00:00 11.5 3 Noroeste 9 Noroeste 0 -- -- 100
2020-01-19 10:00:00 7.8 0 Calma 4 Sudoeste 0 -- -- 98
2020-01-19 09:00:00 6.4 0 Calma 4 Este 0 -- -- 97
2020-01-19 08:00:00 7 3 Oeste 6 Oeste 0 -- -- 96
2020-01-19 07:00:00 7.6 2 Sur 8 Sudoeste 0 -- -- 95
2020-01-19 06:00:00 8.7 4 Sudoeste 9 Oeste 0 -- -- 95
2020-01-19 05:00:00 9.6 4 Oeste 18 Oeste 0 -- -- 95
2020-01-19 04:00:00 10.6 7 Oeste 17 Oeste 0 -- -- 94
2020-01-19 03:00:00 10.8 7 Oeste 17 Oeste 0 -- -- 94
2020-01-19 02:00:00 11.4 6 Oeste 15 Oeste 0 -- -- 92
2020-01-19 01:00:00 12.1 8 Noroeste 15 Noroeste 0 -- -- 92
2020-01-19 00:00:00 13 3 Oeste 25 Oeste 0 -- -- 93
2020-01-18 23:00:00 14.2 12 Noroeste 35 Oeste 0 -- -- 97
2020-01-18 22:00:00 15 10 Sudoeste 20 Sudoeste 0 -- -- 98
2020-01-18 21:00:00 15.5 9 Sudoeste 19 Oeste 0 -- -- 98
2020-01-18 20:00:00 15.7 9 Sudoeste 19 Sudoeste 1.2 -- -- 98
2020-01-18 19:00:00 15.9 9 Sudoeste 22 Sudoeste 0 -- -- 97
2020-01-18 18:00:00 16 10 Sudoeste 23 Sudoeste 0 -- -- 98
2020-01-18 17:00:00 15.8 12 Sudoeste 25 Sudoeste 0 -- -- 98
2020-01-18 16:00:00 15.6 12 Sudoeste 28 Sudoeste 0.2 -- -- 98
2020-01-18 15:00:00 15.3 7 Sudoeste 19 Sudoeste 0.4 -- -- 98
2020-01-18 14:00:00 14.5 8 Sudoeste 17 Oeste 0.6 -- -- 98
2020-01-18 13:00:00 12.6 6 Sur 13 Sudoeste 1 -- -- 98
2020-01-18 12:00:00 11.5 3 Sur 12 Sudeste 0.2 -- -- 96
2020-01-18 11:00:00 10.8 5 Sur 12 Sudeste 0.4 -- -- 96
2020-01-18 10:00:00 10.2 3 Nordeste 11 Norte 0 -- -- 96
2020-01-18 09:00:00 9.7 0 Calma 4 Norte 0 -- -- 96
2020-01-18 08:00:00 9.6 2 Norte 8 Nordeste 0 -- -- 96
2020-01-18 07:00:00 9.5 2 Norte 6 Noroeste 0 -- -- 97
2020-01-18 06:00:00 9.5 0 Calma 5 Norte 0 -- -- 97
2020-01-18 05:00:00 9.5 0 Calma 4 Norte 0 -- -- 97
2020-01-18 04:00:00 9.2 0 Calma 6 Norte 0 -- -- 97
2020-01-18 03:00:00 9.1 3 Norte 8 Norte 0 -- -- 96
2020-01-18 02:00:00 8.9 0 Calma 3 Norte 0 -- -- 95
2020-01-18 01:00:00 9.3 0 Calma 3 Norte 0 -- -- 94
2020-01-18 00:00:00 10.1 3 Norte 6 Norte 0 -- -- 93
2020-01-17 23:00:00 10.9 2 Este 5 Norte 0 -- -- 92
2020-01-17 22:00:00 11.4 2 Norte 8 Norte 0 -- -- 92
2020-01-17 21:00:00 11.7 4 Norte 5 Norte 0 -- -- 89
2020-01-17 20:00:00 13 3 Nordeste 6 Nordeste 0 -- -- 87
2020-01-17 19:00:00 14.9 2 Norte 4 Norte 0 -- -- 79
2020-01-17 18:00:00 17.7 3 Noroeste 5 Norte 0 -- -- 70
2020-01-17 17:00:00 18 0 Calma 6 Este 0 -- -- 69
2020-01-17 16:00:00 18.3 0 Calma 8 Este 0 -- -- 70
2020-01-17 15:00:00 17.2 3 Este 14 Este 0 -- -- 73
2020-01-17 14:00:00 16.1 6 Este 12 Este 0 -- -- 78
2020-01-17 13:00:00 14.4 4 Nordeste 11 Nordeste 0 -- -- 86
2020-01-17 12:00:00 13.8 5 Norte 11 Norte 0 -- -- 89
2020-01-17 11:00:00 12.3 3 Nordeste 9 Nordeste 0 -- -- 92
2020-01-17 10:00:00 11 3 Norte 9 Norte 0 -- -- 94
2020-01-17 09:00:00 10.7 4 Noroeste 8 Noroeste 0 -- -- 93
2020-01-17 08:00:00 10.5 3 Norte 11 Norte 0 -- -- 94
2020-01-17 07:00:00 10.4 0 Calma 3 Norte 0 -- -- 94
2020-01-17 06:00:00 10.2 0 Calma 6 Norte 0 -- -- 92
2020-01-17 05:00:00 10.3 0 Calma -- -- 0 -- -- 93
2020-01-17 04:00:00 9.9 0 Calma -- -- 0 -- -- 94
2020-01-17 03:00:00 9.7 0 Calma 4 Sudoeste 0 -- -- 94
2020-01-17 02:00:00 9.4 2 Sudoeste 3 Oeste 0 -- -- 93
2020-01-17 01:00:00 9.6 2 Norte 3 Norte 0 -- -- 91
2020-01-17 00:00:00 10 2 Sur 5 Sur 0 -- -- 93
2020-01-16 23:00:00 10.1 2 Sur 4 Sur 0 -- -- 92
2020-01-16 22:00:00 11.3 2 Sur 9 Sur 0 -- -- 89
2020-01-16 21:00:00 12.9 3 Sudoeste 13 Sudoeste 0 -- -- 87
2020-01-16 20:00:00 13.6 7 Oeste 18 Sudoeste 0 -- -- 83
2020-01-16 19:00:00 14.3 3 Sudoeste 7 Sudoeste 0 -- -- 65
2020-01-16 18:00:00 16.8 3 Sur 9 Sur 0 -- -- 56
2020-01-16 17:00:00 18.1 7 Sur 18 Sur 0 -- -- 51
2020-01-16 16:00:00 18.8 10 Sur 17 Sur 0 -- -- 42
2020-01-16 15:00:00 18.9 4 Sudoeste 9 Oeste 0 -- -- 45
2020-01-16 14:00:00 17.7 4 Sur 7 Este 0 -- -- 51
2020-01-16 13:00:00 16.2 4 Nordeste 10 Norte 0 -- -- 60
2020-01-16 12:00:00 13.7 5 Norte 10 Nordeste 0 -- -- 67
2020-01-16 11:00:00 11 3 Nordeste 13 Nordeste 0 -- -- 76
2020-01-16 10:00:00 9.1 6 Norte 13 Nordeste 0 -- -- 87
2020-01-16 09:00:00 6.7 3 Norte 9 Norte 0 -- -- 97
2020-01-16 08:00:00 6.8 4 Norte 9 Norte 0 -- -- 97
2020-01-16 07:00:00 7 3 Norte 9 Nordeste 0 -- -- 97
2020-01-16 06:00:00 7.4 4 Norte 10 Noroeste 0 -- -- 97
2020-01-16 05:00:00 7.6 2 Norte 6 Norte 0 -- -- 97
2020-01-16 04:00:00 7.3 3 Norte 5 Norte 0 -- -- 96
2020-01-16 03:00:00 7.8 0 Calma 2 Norte 0 -- -- 95
2020-01-16 02:00:00 8.7 0 Calma 5 Este 0 -- -- 95
2020-01-16 01:00:00 9.5 0 Calma 5 Noroeste 0 -- -- 95
2020-01-16 00:00:00 9.3 3 Noroeste 4 Noroeste 0 -- -- 94
2020-01-15 23:00:00 9.9 0 Calma 5 Sudeste 0 -- -- 91
2020-01-15 22:00:00 10.9 3 Sudeste 6 Sudoeste 0 -- -- 90
2020-01-15 21:00:00 12.2 2 Sur 5 Sudoeste 0 -- -- 89
2020-01-15 20:00:00 13.3 2 Sur 10 Sudoeste 0 -- -- 85
2020-01-15 19:00:00 14.8 7 Sur 17 Sur 0 -- -- 81
2020-01-15 18:00:00 16.5 10 Sur 25 Sur 0 -- -- 75
2020-01-15 17:00:00 17.6 15 Sur 28 Sur 0 -- -- 70
2020-01-15 16:00:00 18.2 15 Sur 26 Sudoeste 0 -- -- 68
2020-01-15 15:00:00 17.4 4 Norte 7 Norte 0 -- -- 65
2020-01-15 14:00:00 15.7 3 Norte 11 Norte 0 -- -- 66
2020-01-15 13:00:00 15.8 4 Norte 9 Este 0 -- -- 64
2020-01-15 12:00:00 12.9 3 Norte 10 Norte 0 -- -- 70
2020-01-15 11:00:00 10.5 6 Norte 12 Norte 0 -- -- 78
2020-01-15 10:00:00 7 3 Noroeste 8 Noroeste 0 -- -- 94
2020-01-15 09:00:00 5.2 0 Calma 8 Norte 0 -- -- 94
2020-01-15 08:00:00 5.7 3 Norte 13 Norte 0 -- -- 94
2020-01-15 07:00:00 5.7 4 Norte 11 Norte 0 -- -- 96
2020-01-15 06:00:00 5.2 3 Noroeste 7 Norte 0 -- -- 95
2020-01-15 05:00:00 5.5 2 Norte 6 Norte 0 -- -- 95
2020-01-15 04:00:00 6 2 Norte 8 Norte 0 -- -- 94
2020-01-15 03:00:00 6.3 3 Norte 9 Norte 0 -- -- 94
2020-01-15 02:00:00 6.3 4 Noroeste 5 Noroeste 0 -- -- 93
2020-01-15 01:00:00 6.6 2 Norte 5 Noroeste 0 -- -- 92
2020-01-15 00:00:00 7 2 Norte 4 Noroeste 0 -- -- 91
2020-01-14 23:00:00 7.5 0 Calma 3 Norte 0 -- -- 90
2020-01-14 22:00:00 7.9 0 Calma 2 Sudoeste 0 -- -- 88
2020-01-14 21:00:00 8.4 0 Calma 0 Calma 0 -- -- 85
2020-01-14 20:00:00 9.7 0 Calma 2 Sudoeste 0 -- -- 79
2020-01-14 19:00:00 11.9 0 Calma 3 Sur 0 -- -- 72
2020-01-14 18:00:00 14.1 0 Calma 8 Sudoeste 0 -- -- 63
2020-01-14 17:00:00 15.4 2 Sur 10 Sudoeste 0 -- -- 57
2020-01-14 16:00:00 15.1 3 Sudoeste 11 Oeste 0 -- -- 59
2020-01-14 15:00:00 15.4 3 Oeste 9 Oeste 0 -- -- 62
2020-01-14 14:00:00 14.4 2 Norte 8 Este 0 -- -- 63
2020-01-14 13:00:00 13.4 3 Norte 9 Norte 0 -- -- 66
2020-01-14 12:00:00 11.3 4 Norte 11 Norte 0 -- -- 71
2020-01-14 11:00:00 8.4 5 Nordeste 14 Nordeste 0 -- -- 81
2020-01-14 10:00:00 6.3 4 Norte 9 Norte 0 -- -- 93
2020-01-14 09:00:00 4.6 4 Norte 10 Norte 0 -- -- 94
2020-01-14 08:00:00 5 5 Norte 10 Norte 0 -- -- 94
2020-01-14 07:00:00 5 4 Norte 13 Norte 0 -- -- 94
2020-01-14 06:00:00 5.2 6 Norte 12 Norte 0 -- -- 94
2020-01-14 05:00:00 5.5 3 Norte 8 Norte 0 -- -- 95
2020-01-14 04:00:00 5.1 3 Norte 6 Norte 0 -- -- 93
2020-01-14 03:00:00 6 5 Norte 12 Norte 0 -- -- 94
2020-01-14 02:00:00 6 6 Norte 13 Norte 0 -- -- 95
2020-01-14 01:00:00 5.2 0 Calma 4 Norte 0 -- -- 92
2020-01-14 00:00:00 6 0 Calma 3 Noroeste 0 -- -- 91
2020-01-13 23:00:00 6.5 4 Norte 8 Norte 0 -- -- 92
2020-01-13 22:00:00 6.8 0 Calma 4 Norte 0 -- -- 87
2020-01-13 21:00:00 7.9 0 Calma 3 Oeste 0 -- -- 84
2020-01-13 20:00:00 9.5 0 Calma 4 Sudoeste 0 -- -- 79
2020-01-13 19:00:00 11.9 0 Calma 2 Sur 0 -- -- 73
2020-01-13 18:00:00 15 0 Calma 5 Oeste 0 -- -- 61
2020-01-13 17:00:00 16 2 Noroeste 6 Oeste 0 -- -- 57
2020-01-13 16:00:00 16.4 2 Noroeste 6 Nordeste 0 -- -- 55
2020-01-13 15:00:00 15.7 2 Norte 5 Norte 0 -- -- 59
2020-01-13 14:00:00 15.1 2 Noroeste 8 Norte 0 -- -- 57
2020-01-13 13:00:00 13.3 4 Norte 14 Nordeste 0 -- -- 64
2020-01-13 12:00:00 10.8 6 Norte 13 Norte 0 -- -- 69
2020-01-13 11:00:00 8.8 8 Norte 13 Nordeste 0 -- -- 74
2020-01-13 10:00:00 6 5 Norte 11 Norte 0 -- -- 86
2020-01-13 09:00:00 3.8 7 Norte 11 Noroeste 0 -- -- 93
2020-01-13 08:00:00 3.5 4 Norte 9 Norte 0 -- -- 92
2020-01-13 07:00:00 3.8 5 Norte 10 Norte 0 -- -- 92
2020-01-13 06:00:00 3.9 6 Norte 11 Noroeste 0 -- -- 92
2020-01-13 05:00:00 4.3 4 Norte 11 Norte 0 -- -- 92
2020-01-13 04:00:00 4.7 4 Norte 11 Norte 0 -- -- 93
2020-01-13 03:00:00 4.4 4 Norte 8 Noroeste 0 -- -- 93
2020-01-13 02:00:00 4.4 0 Calma 3 Noroeste 0 -- -- 91
2020-01-13 01:00:00 5.2 2 Noroeste 5 Noroeste 0 -- -- 89
2020-01-13 00:00:00 5.9 0 Calma 8 Noroeste 0 -- -- 86
2020-01-12 23:00:00 6.4 5 Norte 8 Noroeste 0 -- -- 85
2020-01-12 22:00:00 7.1 0 Calma 4 Norte 0 -- -- 80
2020-01-12 21:00:00 7.6 2 Noroeste 4 Norte 0 -- -- 78
2020-01-12 20:00:00 9.3 0 Calma 2 Noroeste 0 -- -- 71
2020-01-12 19:00:00 12 0 Calma 2 Oeste 0 -- -- 62
2020-01-12 18:00:00 15.9 3 Este 8 Este 0 -- -- 45
2020-01-12 17:00:00 17.7 3 Nordeste 9 Este 0 -- -- 42
2020-01-12 16:00:00 17.9 4 Nordeste 9 Nordeste 0 -- -- 50
2020-01-12 15:00:00 17.5 3 Norte 10 Norte 0 -- -- 55
2020-01-12 14:00:00 15.7 4 Nordeste 11 Nordeste 0 -- -- 59
2020-01-12 13:00:00 13.5 7 Nordeste 14 Nordeste 0 -- -- 63
2020-01-12 12:00:00 11.5 9 Norte 17 Norte 0 -- -- 67
2020-01-12 11:00:00 9.6 6 Norte 13 Norte 0 -- -- 71
2020-01-12 10:00:00 6.6 5 Norte 13 Norte 0 -- -- 83
2020-01-12 09:00:00 3.7 4 Norte 7 Norte 0 -- -- 92
2020-01-12 08:00:00 3.7 3 Norte 10 Norte 0 -- -- 91
2020-01-12 07:00:00 4.1 5 Norte 9 Norte 0 -- -- 91
2020-01-12 06:00:00 4 5 Norte 9 Norte 0 -- -- 92
2020-01-12 05:00:00 3.8 3 Norte 5 Norte 0 -- -- 91
2020-01-12 04:00:00 4.2 2 Norte 6 Norte 0 -- -- 91
2020-01-12 03:00:00 4.3 4 Norte 6 Norte 0 -- -- 91
2020-01-12 02:00:00 4.3 2 Norte 4 Norte 0 -- -- 88
2020-01-12 01:00:00 5.3 0 Calma 3 Norte 0 -- -- 83
2020-01-12 00:00:00 6.5 3 Norte 7 Norte 0 -- -- 78
2020-01-11 23:00:00 7.9 4 Norte 8 Norte 0 -- -- 74
2020-01-11 22:00:00 7.2 5 Norte 9 Norte 0 -- -- 79
2020-01-11 21:00:00 7.8 0 Calma 3 Noroeste 0 -- -- 76
2020-01-11 20:00:00 9.4 0 Calma 3 Norte 0 -- -- 69
2020-01-11 19:00:00 12.2 0 Calma 5 Nordeste 0 -- -- 61
2020-01-11 18:00:00 15.5 3 Nordeste 8 Nordeste 0 -- -- 47
2020-01-11 17:00:00 17.5 3 Nordeste 10 Este 0 -- -- 44
2020-01-11 16:00:00 17.5 5 Nordeste 14 Este 0 -- -- 43
2020-01-11 15:00:00 16.9 6 Nordeste 17 Este 0 -- -- 45
2020-01-11 14:00:00 16 9 Nordeste 16 Nordeste 0 -- -- 46
2020-01-11 13:00:00 15.2 10 Este 18 Nordeste 0 -- -- 48
2020-01-11 12:00:00 13.4 8 Nordeste 18 Nordeste 0 -- -- 54
2020-01-11 11:00:00 11.1 7 Nordeste 14 Norte 0 -- -- 59
2020-01-11 10:00:00 8.7 6 Nordeste 13 Nordeste 0 -- -- 66
2020-01-11 09:00:00 5.4 3 Norte 9 Norte 0 -- -- 78
2020-01-11 08:00:00 5.6 3 Nordeste 9 Norte 0 -- -- 77
2020-01-11 07:00:00 4.9 3 Norte 5 Norte 0 -- -- 81
2020-01-11 06:00:00 6.3 3 Nordeste 9 Norte 0 -- -- 74
2020-01-11 05:00:00 6 3 Norte 9 Nordeste 0 -- -- 75
2020-01-11 04:00:00 6.4 3 Nordeste 10 Nordeste 0 -- -- 74
2020-01-11 03:00:00 6.6 3 Nordeste 9 Este 0 -- -- 75
2020-01-11 02:00:00 6.4 0 Calma 6 Norte 0 -- -- 77
2020-01-11 01:00:00 6.9 3 Norte 8 Norte 0 -- -- 80
2020-01-11 00:00:00 7.4 2 Norte 5 Nordeste 0 -- -- 78
2020-01-10 23:00:00 9.7 3 Norte 13 Nordeste 0 -- -- 69
2020-01-10 22:00:00 10.4 5 Norte 14 Norte 0 -- -- 67
2020-01-10 21:00:00 11.1 5 Norte 11 Norte 0 -- -- 69
2020-01-10 20:00:00 10.3 0 Calma 5 Norte 0 -- -- 79
2020-01-10 19:00:00 12.5 2 Noroeste 6 Noroeste 0 -- -- 72
2020-01-10 18:00:00 15.3 3 Norte 9 Norte 0 -- -- 62
2020-01-10 17:00:00 16.2 5 Norte 14 Nordeste 0 -- -- 58
2020-01-10 16:00:00 16.6 6 Nordeste 17 Nordeste 0 -- -- 55
2020-01-10 15:00:00 16.7 9 Nordeste 16 Norte 0 -- -- 51
2020-01-10 14:00:00 16.1 8 Nordeste 18 Norte 0 -- -- 48
2020-01-10 13:00:00 14.7 6 Norte 15 Norte 0 -- -- 57
2020-01-10 12:00:00 12.9 7 Norte 14 Norte 0 -- -- 68
2020-01-10 11:00:00 10.5 4 Norte 11 Norte 0 -- -- 85
2020-01-10 10:00:00 7 3 Norte 9 Norte 0 -- -- 99
2020-01-10 09:00:00 4.1 0 Calma 4 Sudoeste 0 -- -- 97
2020-01-10 08:00:00 4.6 0 Calma -- -- 0 -- -- 97
2020-01-10 07:00:00 5.6 0 Calma 3 Noroeste 0 -- -- 97
2020-01-10 06:00:00 6.8 0 Calma 3 Noroeste 0 -- -- 98
2020-01-10 05:00:00 6.5 0 Calma 4 Noroeste 0 -- -- 98
2020-01-10 04:00:00 5.1 0 Calma 2 Noroeste 0 -- -- 96
2020-01-10 03:00:00 5.9 0 Calma 4 Sudoeste 0 -- -- 96
2020-01-10 02:00:00 6.7 0 Calma 8 Sudoeste 0 -- -- 95
2020-01-10 01:00:00 6.6 0 Calma 3 Sur 0 -- -- 94
2020-01-10 00:00:00 7.1 0 Calma -- -- 0 -- -- 93
2020-01-09 23:00:00 8.1 0 Calma -- -- 0 -- -- 93
2020-01-09 22:00:00 8.7 0 Calma -- -- 0 -- -- 91
2020-01-09 21:00:00 9.2 0 Calma 2 Sur 0 -- -- 89
2020-01-09 20:00:00 10.4 2 Sur 3 Sur 0 -- -- 85
2020-01-09 19:00:00 12.4 2 Sudoeste 6 Sudoeste 0 -- -- 77
2020-01-09 18:00:00 14.8 4 Sudoeste 9 Sudoeste 0 -- -- 67
2020-01-09 17:00:00 16.2 3 Sur 11 Sudoeste 0 -- -- 63
2020-01-09 16:00:00 16.8 4 Sur 9 Sur 0 -- -- 60
2020-01-09 15:00:00 16.6 4 Sudeste 11 Norte 0 -- -- 60
2020-01-09 14:00:00 16.1 3 Norte 9 Norte 0 -- -- 61
2020-01-09 13:00:00 14.2 4 Nordeste 10 Este 0 -- -- 66
2020-01-09 12:00:00 12.3 5 Norte 13 Norte 0 -- -- 70
2020-01-09 11:00:00 10.1 2 Nordeste 8 Noroeste 0 -- -- 79
2020-01-09 10:00:00 6.9 2 Noroeste 5 Noroeste 0 -- -- 98
2020-01-09 09:00:00 3.5 0 Calma 5 Noroeste 0 -- -- 97
2020-01-09 08:00:00 3.6 3 Norte 4 Norte 0 -- -- 96
2020-01-09 07:00:00 4 3 Norte 6 Norte 0 -- -- 96
2020-01-09 06:00:00 4.4 3 Norte 9 Norte 0 -- -- 96
2020-01-09 05:00:00 4.8 3 Norte 8 Norte 0 -- -- 96
2020-01-09 04:00:00 4.3 2 Noroeste 4 Noroeste 0 -- -- 95
2020-01-09 03:00:00 4.8 0 Calma -- -- 0 -- -- 95
2020-01-09 02:00:00 5.2 0 Calma 3 Sudoeste 0 -- -- 94
2020-01-09 01:00:00 5.9 0 Calma 6 Norte 0 -- -- 92
2020-01-09 00:00:00 6.5 0 Calma 3 Norte 0 -- -- 91
2020-01-08 23:00:00 7.5 2 Sudoeste 4 Sudoeste 0 -- -- 91
2020-01-08 22:00:00 7.9 0 Calma 3 Sudoeste 0 -- -- 87
2020-01-08 21:00:00 8.7 0 Calma 4 Oeste 0 -- -- 82
2020-01-08 20:00:00 10.5 0 Calma 0 Calma 0 -- -- 77
2020-01-08 19:00:00 13.4 0 Calma 3 Noroeste 0 -- -- 67
2020-01-08 18:00:00 18 2 Noroeste 4 Noroeste 0 -- -- 53
2020-01-08 17:00:00 19.8 2 Nordeste 6 Nordeste 0 -- -- 46
2020-01-08 16:00:00 20.1 3 Norte 8 Norte 0 -- -- 45
2020-01-08 15:00:00 19.1 5 Nordeste 12 Este 0 -- -- 47
2020-01-08 14:00:00 17.2 6 Nordeste 12 Nordeste 0 -- -- 52
2020-01-08 13:00:00 15.1 7 Nordeste 18 Norte 0 -- -- 57
2020-01-08 12:00:00 12.8 8 Nordeste 17 Nordeste 0 -- -- 66
2020-01-08 11:00:00 11 7 Norte 17 Norte 0 -- -- 74
2020-01-08 10:00:00 7.9 5 Norte 13 Norte 0 -- -- 87
2020-01-08 09:00:00 4.8 5 Norte 14 Norte 0 -- -- 95
2020-01-08 08:00:00 4.9 7 Norte 10 Norte 0 -- -- 95
2020-01-08 07:00:00 4.9 4 Norte 10 Noroeste 0 -- -- 95
2020-01-08 06:00:00 5.1 5 Norte 10 Noroeste 0 -- -- 95
2020-01-08 05:00:00 5.5 4 Norte 11 Nordeste 0 -- -- 95
2020-01-08 04:00:00 5.2 3 Norte 7 Norte 0 -- -- 95
2020-01-08 03:00:00 5.4 0 Calma 5 Noroeste 0 -- -- 94
2020-01-08 02:00:00 5.7 3 Norte 4 Norte 0 -- -- 93
2020-01-08 01:00:00 6.5 0 Calma 5 Norte 0 -- -- 92
2020-01-08 00:00:00 6.7 3 Norte 4 Noroeste 0 -- -- 92
2020-01-07 23:00:00 7 3 Norte 4 Norte 0 -- -- 90
2020-01-07 22:00:00 7.7 0 Calma 3 Noroeste 0 -- -- 88
2020-01-07 21:00:00 8.7 0 Calma 0 Calma 0 -- -- 83
2020-01-07 20:00:00 10.5 0 Calma 2 Noroeste 0 -- -- 78
2020-01-07 19:00:00 13.1 2 Norte 3 Noroeste 0 -- -- 70
2020-01-07 18:00:00 17.1 0 Calma 5 Sudeste 0 -- -- 58
2020-01-07 17:00:00 18.6 4 Este 9 Este 0 -- -- 49
2020-01-07 16:00:00 18.8 3 Norte 10 Norte 0 -- -- 51
2020-01-07 15:00:00 18 5 Este 11 Nordeste 0 -- -- 53
2020-01-07 14:00:00 17 6 Este 15 Este 0 -- -- 55
2020-01-07 13:00:00 15.2 8 Nordeste 16 Nordeste 0 -- -- 59
2020-01-07 12:00:00 13 7 Nordeste 18 Norte 0 -- -- 66
2020-01-07 11:00:00 11 6 Norte 14 Norte 0 -- -- 76
2020-01-07 10:00:00 8 9 Nordeste 14 Nordeste 0 -- -- 89
2020-01-07 09:00:00 5.5 5 Norte 12 Norte 0 -- -- 96
2020-01-07 08:00:00 5.4 5 Nordeste 13 Norte 0 -- -- 97
2020-01-07 07:00:00 5.3 4 Norte 9 Norte 0 -- -- 96
2020-01-07 06:00:00 5.6 4 Norte 10 Norte 0 -- -- 96
2020-01-07 05:00:00 5.9 5 Norte 9 Norte 0 -- -- 96
2020-01-07 04:00:00 6.3 3 Norte 9 Norte 0 -- -- 96
2020-01-07 03:00:00 6.1 3 Norte 8 Norte 0 -- -- 95
2020-01-07 02:00:00 6.4 3 Norte 6 Noroeste 0 -- -- 94
2020-01-07 01:00:00 6.8 4 Norte 6 Noroeste 0 -- -- 93
2020-01-07 00:00:00 7.3 2 Norte 5 Norte 0 -- -- 90
2020-01-06 23:00:00 8.7 2 Norte 10 Norte 0 -- -- 89
2020-01-06 22:00:00 8.4 2 Norte 7 Norte 0 -- -- 88
2020-01-06 21:00:00 9.2 4 Norte 6 Noroeste 0 -- -- 87
2020-01-06 20:00:00 9.7 4 Noroeste 6 Noroeste 0 -- -- 83
2020-01-06 19:00:00 12 0 Calma 2 Noroeste 0 -- -- 76
2020-01-06 18:00:00 15.5 0 Calma 8 Noroeste 0 -- -- 62
2020-01-06 17:00:00 17.3 2 Norte 6 Noroeste 0 -- -- 57
2020-01-06 16:00:00 17.6 0 Calma 8 Norte 0 -- -- 59
2020-01-06 15:00:00 16.8 3 Este 9 Este 0 -- -- 59
2020-01-06 14:00:00 15.5 5 Nordeste 13 Nordeste 0 -- -- 63
2020-01-06 13:00:00 14.2 6 Nordeste 12 Nordeste 0 -- -- 67
2020-01-06 12:00:00 11.9 5 Norte 14 Norte 0 -- -- 76
2020-01-06 11:00:00 9.7 6 Norte 12 Norte 0 -- -- 82
2020-01-06 10:00:00 7.4 6 Norte 10 Norte 0 -- -- 95